Time;durP1;ratioP1;P1;durP2;ratioP2;P2;SDS_P1;SDS_P2;PMS_P1;PMS_P2;Temp;Humidity;BMP_temperature;BMP_pressure;BME280_temperature;BME280_humidity;BME280_pressure;Samples;Min_cycle;Max_cycle;Signal;HPM_P1;HPM_P2
2021/08/25 00:01:35;;;;;;;16.38;5.10;;;;;;;12.91;74.33;99772.16;5040410;28;20118;-54
2021/08/25 00:04:03;;;;;;;10.02;4.43;;;;;;;12.87;74.17;99767.13;5041163;28;20044;-54
2021/08/25 00:06:29;;;;;;;13.23;5.43;;;;;;;12.90;74.58;99769.59;5029384;28;20043;-54
2021/08/25 00:08:55;;;;;;;10.45;5.05;;;;;;;12.88;74.71;99776.63;5030871;28;20184;-52
2021/08/25 00:11:21;;;;;;;13.73;5.43;;;;;;;12.87;74.71;99775.81;5029495;28;20053;-52
2021/08/25 00:13:47;;;;;;;12.80;5.35;;;;;;;12.85;74.94;99774.16;5030534;28;20175;-55
2021/08/25 00:16:13;;;;;;;14.38;6.50;;;;;;;12.85;75.20;99768.94;5029008;28;20124;-53
2021/08/25 00:18:39;;;;;;;13.73;5.68;;;;;;;12.84;75.25;99767.25;5030754;28;20041;-55
2021/08/25 00:21:04;;;;;;;12.02;5.50;;;;;;;12.83;75.09;99760.34;5031019;28;20529;-53
2021/08/25 00:23:30;;;;;;;13.10;5.90;;;;;;;12.83;75.36;99757.72;5030402;28;20459;-53
2021/08/25 00:26:02;;;;;;;11.32;5.50;;;;;;;12.84;75.67;99765.50;5021201;28;20412;-53
2021/08/25 00:28:28;;;;;;;15.95;5.40;;;;;;;12.85;75.54;99764.59;5039488;28;20455;-53
2021/08/25 00:30:54;;;;;;;14.15;5.75;;;;;;;12.79;75.48;99756.16;5030576;28;20041;-53
2021/08/25 00:33:19;;;;;;;14.02;4.95;;;;;;;12.86;75.82;99770.66;5029317;28;20648;-54
2021/08/25 00:35:45;;;;;;;13.43;5.35;;;;;;;12.85;75.39;99772.41;5030260;28;20042;-53
2021/08/25 00:38:11;;;;;;;10.32;5.03;;;;;;;12.84;75.42;99765.50;5029991;28;20041;-51
2021/08/25 00:40:37;;;;;;;15.27;5.30;;;;;;;12.87;75.34;99767.13;5030661;28;20064;-52
2021/08/25 00:43:10;;;;;;;9.38;4.78;;;;;;;12.90;75.70;99772.22;5029030;28;20037;-53
2021/08/25 00:45:40;;;;;;;12.02;5.55;;;;;;;12.90;75.43;99762.63;5030298;28;20041;-52
2021/08/25 00:48:14;;;;;;;16.13;5.57;;;;;;;12.91;75.74;99769.56;5029320;28;20421;-53
2021/08/25 00:50:40;;;;;;;16.00;6.20;;;;;;;12.90;75.54;99767.84;5029517;28;20033;-49
2021/08/25 00:53:07;;;;;;;11.95;5.10;;;;;;;12.87;76.04;99772.34;5028740;28;20127;-55
2021/08/25 00:55:39;;;;;;;13.45;5.55;;;;;;;12.76;76.11;99754.53;5029061;28;20578;-55
2021/08/25 00:58:06;;;;;;;17.40;5.55;;;;;;;12.82;76.33;99769.09;5029766;28;20497;-54
2021/08/25 01:00:34;;;;;;;11.93;5.63;;;;;;;12.80;76.60;99776.13;5029886;28;20525;-54
2021/08/25 01:03:46;;;;;;;12.90;5.60;;;;;;;12.77;76.94;99769.25;5030222;28;20064;-54
2021/08/25 01:06:14;;;;;;;12.98;5.43;;;;;;;12.72;76.82;99773.81;5028511;28;20041;-52
2021/08/25 01:08:42;;;;;;;9.85;4.88;;;;;;;12.67;77.02;99776.63;5012009;28;20516;-52
2021/08/25 01:11:08;;;;;;;12.18;5.40;;;;;;;12.62;77.25;99769.91;5028108;28;20061;-56
2021/08/25 01:13:35;;;;;;;10.43;5.50;;;;;;;12.60;77.35;99783.03;5028704;28;20033;-53
2021/08/25 01:16:01;;;;;;;11.73;5.00;;;;;;;12.58;77.22;99774.41;5029062;28;20080;-52
2021/08/25 01:18:27;;;;;;;13.60;6.07;;;;;;;12.54;77.24;99769.38;5028343;28;20041;-51
2021/08/25 01:20:54;;;;;;;14.15;5.57;;;;;;;12.52;76.79;99771.19;5025653;28;20033;-56
2021/08/25 01:23:20;;;;;;;12.32;5.20;;;;;;;12.50;76.30;99767.81;5027981;28;20042;-51
2021/08/25 01:25:49;;;;;;;12.60;5.53;;;;;;;12.46;76.65;99768.81;5028131;28;20428;-54
2021/08/25 01:28:16;;;;;;;;;;;;;;;12.46;76.68;99771.44;5043088;28;20055;-54
2021/08/25 01:30:44;;;;;;;16.60;5.43;;;;;;;12.43;76.31;99762.00;5071369;28;20012;-54
2021/08/25 01:33:25;;;;;;;18.85;5.65;;;;;;;12.41;76.55;99769.03;5046406;28;20095;-55
2021/08/25 01:35:51;;;;;;;13.75;5.20;;;;;;;12.38;76.88;99761.34;5043486;28;20041;-55
2021/08/25 01:38:32;;;;;;;15.95;5.82;;;;;;;12.36;76.53;99757.94;5035395;28;20087;-52
2021/08/25 01:40:57;;;;;;;15.13;5.60;;;;;;;12.35;76.66;99761.47;5041081;28;20065;-53
2021/08/25 01:43:23;;;;;;;18.75;5.63;;;;;;;12.33;76.26;99763.28;5034725;28;20092;-52
2021/08/25 01:45:49;;;;;;;12.75;4.90;;;;;;;12.32;76.26;99767.63;5046050;28;20461;-54
2021/08/25 01:48:15;;;;;;;10.13;5.00;;;;;;;12.30;75.98;99759.03;5027765;28;20122;-52
2021/08/25 01:50:41;;;;;;;14.15;5.63;;;;;;;12.28;75.97;99760.00;5034304;28;20136;-54
2021/08/25 01:53:06;;;;;;;11.20;5.82;;;;;;;12.19;75.90;99755.16;5030995;28;20045;-53
2021/08/25 01:55:32;;;;;;;12.43;5.38;;;;;;;12.26;75.70;99769.63;5029514;28;20487;-55
2021/08/25 01:57:58;;;;;;;13.77;5.03;;;;;;;12.26;75.44;99772.25;5029474;28;20496;-52
2021/08/25 02:00:24;;;;;;;10.23;4.90;;;;;;;12.25;75.38;99770.53;5040279;28;20509;-55
2021/08/25 02:02:50;;;;;;;12.80;4.97;;;;;;;12.15;75.10;99753.56;5034746;28;20048;-53
2021/08/25 02:05:16;;;;;;;12.18;5.20;;;;;;;12.22;75.46;99763.72;5029609;28;20151;-53
2021/08/25 02:07:42;;;;;;;10.30;5.55;;;;;;;12.19;75.30;99763.84;5029567;28;20053;-53
2021/08/25 02:10:08;;;;;;;13.70;6.47;;;;;;;12.18;75.34;99761.28;5028736;28;20148;-51
2021/08/25 02:12:34;;;;;;;13.60;6.13;;;;;;;12.15;75.22;99758.78;5027869;28;20137;-50
2021/08/25 02:15:00;;;;;;;14.13;6.18;;;;;;;12.11;75.56;99765.88;5029384;28;20124;-51
2021/08/25 02:17:27;;;;;;;13.98;6.60;;;;;;;12.08;75.83;99765.16;5038357;28;20565;-52
2021/08/25 02:19:52;;;;;;;14.80;5.80;;;;;;;12.05;76.16;99763.50;5044952;28;20064;-55
2021/08/25 02:22:18;;;;;;;11.82;5.95;;;;;;;12.02;76.17;99762.78;5028323;28;20076;-53
2021/08/25 02:24:44;;;;;;;13.70;6.30;;;;;;;11.98;76.76;99762.06;5028516;28;20041;-50
2021/08/25 02:27:10;;;;;;;12.32;5.90;;;;;;;11.96;77.09;99761.28;5029013;28;20131;-52
2021/08/25 02:29:35;;;;;;;15.57;7.20;;;;;;;11.91;77.47;99760.59;5029063;28;20108;-51
2021/08/25 02:32:01;;;;;;;16.55;7.20;;;;;;;11.89;78.07;99772.81;5028549;28;20045;-53
2021/08/25 02:34:28;;;;;;;15.98;7.63;;;;;;;11.85;78.43;99766.03;5011672;28;20038;-55
2021/08/25 02:36:54;;;;;;;17.85;7.63;;;;;;;11.83;79.53;99762.63;5028904;28;20573;-54
2021/08/25 02:39:20;;;;;;;17.00;6.93;;;;;;;11.80;79.78;99768.81;5031997;28;20619;-51
2021/08/25 02:41:45;;;;;;;14.73;6.63;;;;;;;11.78;80.17;99773.22;5041120;28;20041;-52
2021/08/25 02:44:11;;;;;;;12.25;6.43;;;;;;;11.73;80.33;99759.53;5032416;28;20094;-55
2021/08/25 02:46:37;;;;;;;18.25;6.25;;;;;;;11.69;81.40;99765.75;5036915;28;20530;-52
2021/08/25 02:49:04;;;;;;;12.48;5.97;;;;;;;11.75;81.51;99769.91;5034156;28;20194;-53
2021/08/25 02:51:30;;;;;;;17.08;6.90;;;;;;;11.74;82.28;99774.25;5042741;28;20068;-51
2021/08/25 02:53:56;;;;;;;18.63;6.35;;;;;;;11.75;82.76;99773.34;5031757;28;20509;-50
2021/08/25 02:56:22;;;;;;;21.85;7.00;;;;;;;11.75;83.39;99764.69;5032471;28;20045;-53
2021/08/25 02:58:48;;;;;;;12.68;6.00;;;;;;;11.75;83.84;99760.34;5032208;28;20041;-53
2021/08/25 03:01:14;;;;;;;17.70;6.60;;;;;;;11.75;84.43;99759.47;5032324;28;20123;-55
2021/08/25 03:03:40;;;;;;;15.63;6.30;;;;;;;11.75;85.20;99756.88;5031138;28;20049;-55
2021/08/25 03:06:06;;;;;;;15.18;6.05;;;;;;;11.76;85.69;99763.78;5032397;28;20045;-51
2021/08/25 03:08:36;;;;;;;13.60;6.13;;;;;;;11.75;85.43;99764.69;5031651;28;20037;-50
2021/08/25 03:11:02;;;;;;;15.73;6.38;;;;;;;11.74;85.17;99766.44;5031926;28;20049;-52
2021/08/25 03:13:28;;;;;;;18.02;6.65;;;;;;;11.75;85.58;99770.75;5031618;28;20038;-52
2021/08/25 03:15:54;;;;;;;17.67;6.78;;;;;;;11.76;85.65;99767.25;5013674;28;20421;-51
2021/08/25 03:18:20;;;;;;;18.17;7.07;;;;;;;11.78;85.80;99769.78;5032043;28;20077;-53
2021/08/25 03:20:45;;;;;;;21.35;6.38;;;;;;;11.64;85.51;99744.22;5031662;28;20042;-52
2021/08/25 03:23:11;;;;;;;13.80;6.35;;;;;;;11.82;86.01;99773.97;5031828;28;20157;-54
2021/08/25 03:25:37;;;;;;;14.80;6.25;;;;;;;11.84;85.46;99775.59;5038042;28;20041;-52
2021/08/25 03:28:03;;;;;;;18.77;6.80;;;;;;;11.86;85.75;99767.75;5039522;28;20421;-54
2021/08/25 03:30:29;;;;;;;15.85;6.07;;;;;;;11.85;84.96;99766.91;5031630;28;20048;-53
2021/08/25 03:32:55;;;;;;;27.27;8.32;;;;;;;11.91;85.09;99771.03;5030435;28;20866;-56
2021/08/25 03:35:21;;;;;;;13.10;5.82;;;;;;;11.94;84.76;99762.22;5031471;28;20124;-50
2021/08/25 03:37:46;;;;;;;13.52;6.13;;;;;;;11.94;83.93;99765.69;5031747;28;20041;-52
2021/08/25 03:40:12;;;;;;;21.25;7.40;;;;;;;11.97;83.46;99765.59;5035593;28;20049;-50
2021/08/25 03:42:39;;;;;;;16.50;6.35;;;;;;;12.00;83.13;99762.84;5041465;28;20045;-54
2021/08/25 03:45:05;;;;;;;15.60;6.32;;;;;;;12.04;82.26;99766.16;5037957;28;20048;-53
2021/08/25 03:47:32;;;;;;;19.67;6.60;;;;;;;12.08;82.13;99767.78;5031068;28;20087;-52
2021/08/25 03:49:58;;;;;;;21.27;6.45;;;;;;;12.03;81.01;99741.91;5048804;28;20041;-53
2021/08/25 03:52:24;;;;;;;13.95;5.85;;;;;;;12.15;80.23;99756.19;5046450;28;20452;-55
2021/08/25 03:54:50;;;;;;;12.57;5.78;;;;;;;12.17;79.20;99752.63;5030700;28;20037;-55
2021/08/25 03:57:16;;;;;;;16.63;6.35;;;;;;;12.22;78.73;99758.50;5031106;28;20099;-54
2021/08/25 03:59:42;;;;;;;13.85;6.20;;;;;;;12.26;77.55;99749.63;5013573;28;20500;-52
2021/08/25 04:02:08;;;;;;;16.63;6.13;;;;;;;12.21;77.58;99741.16;5031395;28;20037;-54
2021/08/25 04:04:34;;;;;;;12.20;5.25;;;;;;;12.37;77.28;99754.41;5030058;28;20068;-55
2021/08/25 04:07:00;;;;;;;16.33;6.40;;;;;;;12.39;76.44;99756.97;5012906;28;20041;-55
2021/08/25 04:09:25;;;;;;;13.45;6.63;;;;;;;12.46;76.09;99756.66;5030182;28;20045;-53
2021/08/25 04:11:51;;;;;;;14.43;6.28;;;;;;;12.50;75.95;99755.63;5030548;28;20057;-54
2021/08/25 04:14:17;;;;;;;11.25;5.75;;;;;;;12.56;75.65;99757.97;5033826;28;20095;-57
2021/08/25 04:16:43;;;;;;;13.95;5.47;;;;;;;12.62;75.20;99755.09;5030259;28;20069;-52
2021/08/25 04:19:08;;;;;;;11.70;5.43;;;;;;;12.67;74.89;99757.53;5029216;28;20068;-51
2021/08/25 04:21:34;;;;;;;14.25;5.05;;;;;;;12.72;75.03;99758.16;5046936;28;20138;-53
2021/08/25 04:24:00;;;;;;;15.40;6.05;;;;;;;12.76;74.07;99748.47;5024543;28;20520;-53
2021/08/25 04:26:26;;;;;;;18.20;6.10;;;;;;;12.81;73.65;99756.97;5038515;28;20583;-53
2021/08/25 04:28:52;;;;;;;21.92;6.63;;;;;;;12.87;73.48;99760.16;5029136;28;20049;-53
2021/08/25 04:31:17;;;;;;;20.73;6.53;;;;;;;12.92;72.52;99763.41;5030692;28;20127;-51
2021/08/25 04:33:43;;;;;;;15.88;6.30;;;;;;;12.97;72.13;99745.81;5030533;28;20042;-54
2021/08/25 04:36:09;;;;;;;14.60;5.68;;;;;;;13.02;71.62;99753.44;5030600;28;20137;-50
2021/08/25 04:38:35;;;;;;;22.23;5.85;;;;;;;13.06;71.23;99740.19;5031632;28;20101;-52
2021/08/25 04:41:00;;;;;;;13.10;5.57;;;;;;;13.13;71.17;99743.41;5030593;28;20065;-53
2021/08/25 04:43:27;;;;;;;13.32;6.22;;;;;;;13.18;70.80;99743.22;5034614;28;20059;-52
2021/08/25 04:45:53;;;;;;;16.25;5.85;;;;;;;13.24;70.34;99750.78;5030342;28;20136;-53
2021/08/25 04:48:19;;;;;;;13.20;5.82;;;;;;;13.31;70.03;99739.13;5030217;28;20041;-53
2021/08/25 04:50:44;;;;;;;11.40;6.05;;;;;;;13.38;70.02;99732.72;5011697;28;20448;-52
2021/08/25 04:53:10;;;;;;;23.70;6.50;;;;;;;13.41;69.96;99729.97;5029117;28;20044;-54
2021/08/25 04:55:37;;;;;;;17.35;6.10;;;;;;;13.52;69.85;99743.38;5037057;28;20036;-54
2021/08/25 04:58:06;;;;;;;16.67;5.85;;;;;;;13.58;69.46;99743.97;5043561;28;20045;-51
2021/08/25 05:00:32;;;;;;;17.00;6.25;;;;;;;13.66;69.11;99735.75;5029280;28;21615;-55
2021/08/25 05:02:58;;;;;;;11.40;4.70;;;;;;;13.74;68.33;99732.81;5029876;28;20049;-56
2021/08/25 05:05:23;;;;;;;13.27;5.75;;;;;;;13.80;67.14;99738.59;5029338;28;20029;-54
2021/08/25 05:07:49;;;;;;;13.35;4.57;;;;;;;13.89;66.39;99734.69;5029337;28;20071;-54
2021/08/25 05:10:17;;;;;;;13.07;4.82;;;;;;;13.96;65.84;99736.97;5029127;28;20041;-53
2021/08/25 05:12:44;;;;;;;18.55;6.00;;;;;;;14.03;65.13;99734.88;5029113;28;20070;-56
2021/08/25 05:15:10;;;;;;;15.40;5.13;;;;;;;14.11;64.58;99738.00;5029922;28;20036;-54
2021/08/25 05:17:36;;;;;;;11.27;5.38;;;;;;;14.19;63.91;99733.22;5042832;28;20171;-56
2021/08/25 05:20:07;;;;;;;14.23;5.13;;;;;;;14.13;63.32;99704.75;5028398;28;20041;-55
2021/08/25 05:22:33;;;;;;;13.10;5.57;;;;;;;14.31;63.09;99735.25;5029965;28;20069;-54
2021/08/25 05:24:59;;;;;;;11.23;5.47;;;;;;;14.46;62.81;99744.16;5032896;28;20123;-52
2021/08/25 05:27:25;;;;;;;11.48;4.78;;;;;;;14.56;62.45;99741.94;5027573;28;20489;-52
2021/08/25 05:29:50;;;;;;;11.15;4.72;;;;;;;14.66;62.10;99728.31;5029528;28;20052;-48
2021/08/25 05:32:17;;;;;;;22.35;5.78;;;;;;;14.78;61.87;99734.69;5034116;28;20513;-52
2021/08/25 05:34:43;;;;;;;15.75;5.28;;;;;;;14.89;61.34;99737.63;5029055;28;20041;-53
2021/08/25 05:37:09;;;;;;;12.82;5.38;;;;;;;14.99;61.10;99728.38;5029296;28;20041;-52
2021/08/25 05:39:35;;;;;;;10.40;4.80;;;;;;;15.09;60.40;99721.72;5029929;28;20041;-52
2021/08/25 05:42:01;;;;;;;9.32;5.15;;;;;;;15.23;59.78;99721.84;5029502;28;20532;-50
2021/08/25 05:44:27;;;;;;;9.95;3.90;;;;;;;15.33;59.45;99718.75;5034014;28;20385;-50
2021/08/25 05:46:53;;;;;;;13.40;6.57;;;;;;;15.42;58.68;99720.88;5030183;28;20611;-54
2021/08/25 05:49:18;;;;;;;15.05;6.13;;;;;;;15.52;57.93;99716.88;5029117;28;20048;-48
2021/08/25 05:51:44;;;;;;;11.55;4.70;;;;;;;15.59;56.87;99721.72;5028372;28;20513;-51
2021/08/25 05:54:13;;;;;;;13.48;5.22;;;;;;;15.59;56.34;99708.59;5031953;28;20039;-49
2021/08/25 05:56:39;;;;;;;17.52;4.72;;;;;;;15.81;56.36;99717.88;5034732;28;20109;-51
2021/08/25 05:59:05;;;;;;;13.63;4.85;;;;;;;15.94;56.06;99711.03;5042839;28;20385;-52
2021/08/25 06:01:31;;;;;;;8.82;4.40;;;;;;;16.09;55.62;99710.19;5033482;28;20581;-52
2021/08/25 06:03:58;;;;;;;12.90;5.07;;;;;;;16.24;55.73;99709.31;5047917;28;20495;-54
2021/08/25 06:06:31;;;;;;;10.10;4.45;;;;;;;16.30;53.80;99714.22;5044946;28;20053;-49
2021/08/25 06:08:57;;;;;;;11.23;4.70;;;;;;;16.25;53.08;99691.78;5027794;28;20065;-51
2021/08/25 06:11:23;;;;;;;11.43;5.20;;;;;;;16.54;52.99;99706.69;5067410;28;20080;-51
2021/08/25 06:13:49;;;;;;;11.07;4.07;;;;;;;16.99;51.42;99702.31;5030354;28;20511;-50
2021/08/25 06:16:15;;;;;;;9.48;4.15;;;;;;;17.66;49.03;99710.41;5045469;28;20072;-49
2021/08/25 06:18:40;;;;;;;12.30;4.70;;;;;;;18.66;46.25;99703.00;5032619;28;20183;-54
2021/08/25 06:21:06;;;;;;;10.40;4.65;;;;;;;19.78;44.24;99703.03;5032573;28;20049;-55
2021/08/25 06:23:32;;;;;;;11.32;4.82;;;;;;;20.75;42.69;99692.34;5032601;28;20424;-54
2021/08/25 06:25:58;;;;;;;11.63;4.90;;;;;;;21.69;39.81;99702.66;5036770;28;20041;-54
2021/08/25 06:28:25;;;;;;;11.00;5.45;;;;;;;22.58;37.74;99697.94;5050643;28;20040;-56
2021/08/25 06:30:51;;;;;;;12.77;5.50;;;;;;;23.59;36.40;99704.28;5050504;28;20530;-58
2021/08/25 06:33:17;;;;;;;13.45;4.93;;;;;;;24.47;34.07;99696.31;5045910;28;20592;-56
2021/08/25 06:35:42;;;;;;;10.50;4.55;;;;;;;25.27;33.29;99692.41;5035583;28;20424;-50
2021/08/25 06:38:08;;;;;;;9.75;4.88;;;;;;;26.03;32.20;99693.00;5032437;28;20520;-59
2021/08/25 06:40:34;;;;;;;10.20;5.07;;;;;;;26.72;30.45;99682.50;5032035;28;20041;-58
2021/08/25 06:43:00;;;;;;;11.20;6.65;;;;;;;27.46;29.29;99683.81;5049638;28;20037;-52
2021/08/25 06:45:26;;;;;;;12.93;5.30;;;;;;;28.27;28.27;99687.59;5039911;28;20048;-56
2021/08/25 06:47:52;;;;;;;17.80;5.65;;;;;;;28.97;27.14;99695.97;5040636;28;20033;-54
2021/08/25 06:50:18;;;;;;;10.15;5.03;;;;;;;29.62;25.22;99703.84;5039994;28;20041;-58
2021/08/25 06:52:44;;;;;;;11.23;5.05;;;;;;;30.23;24.28;99703.03;5034019;28;20037;-58
2021/08/25 06:55:10;;;;;;;8.15;4.50;;;;;;;30.05;23.01;99697.94;5030243;28;20361;-59
2021/08/25 06:57:43;;;;;;;8.40;4.72;;;;;;;30.37;23.37;99696.03;5030792;28;20037;-55
2021/08/25 07:00:11;;;;;;;6.88;4.28;;;;;;;30.81;21.71;99690.84;5042159;28;20036;-57
2021/08/25 07:02:36;;;;;;;8.38;3.97;;;;;;;31.44;21.90;99693.06;5054515;28;20045;-58
2021/08/25 07:05:05;;;;;;;8.38;4.47;;;;;;;32.13;20.35;99689.00;5051734;28;20037;-58
2021/08/25 07:07:32;;;;;;;9.07;4.60;;;;;;;32.79;19.99;99697.69;5048478;28;20040;-58
2021/08/25 07:09:57;;;;;;;8.43;5.85;;;;;;;33.19;19.37;99688.88;5050852;28;20033;-56
2021/08/25 07:12:24;;;;;;;8.68;5.15;;;;;;;33.40;19.33;99697.91;5049781;28;20049;-56
2021/08/25 07:14:51;;;;;;;10.02;7.53;;;;;;;33.59;19.22;99694.50;5049855;28;20041;-55
2021/08/25 07:17:16;;;;;;;11.30;5.70;;;;;;;34.08;18.32;99693.44;5048815;28;20050;-51
2021/08/25 07:19:42;;;;;;;12.73;7.20;;;;;;;34.46;18.24;99689.19;5051584;28;20045;-54
2021/08/25 07:22:09;;;;;;;11.20;6.75;;;;;;;34.24;18.49;99687.69;5042231;28;20041;-56
2021/08/25 07:24:35;;;;;;;8.70;6.07;;;;;;;34.66;17.82;99703.53;5048152;28;20424;-56
2021/08/25 07:27:00;;;;;;;8.32;5.55;;;;;;;35.24;17.27;99696.47;5043365;28;20099;-51
2021/08/25 07:29:26;;;;;;;9.13;5.15;;;;;;;35.71;17.26;99697.16;5050236;28;20041;-52
2021/08/25 07:31:52;;;;;;;7.82;5.68;;;;;;;36.01;17.18;99697.47;5049626;28;20423;-56
2021/08/25 07:34:18;;;;;;;16.42;6.90;;;;;;;36.40;17.41;99693.69;5036041;28;20483;-57
2021/08/25 07:36:44;;;;;;;8.13;5.95;;;;;;;36.89;16.55;99691.03;5042187;28;20045;-57
2021/08/25 07:39:09;;;;;;;8.15;5.82;;;;;;;35.96;15.71;99683.72;5053141;28;20048;-54
2021/08/25 07:41:35;;;;;;;8.50;5.70;;;;;;;35.33;16.99;99675.41;5070250;28;20066;-56
2021/08/25 07:44:01;;;;;;;8.07;5.45;;;;;;;34.84;16.71;99695.66;5052673;28;20033;-57
2021/08/25 07:46:32;;;;;;;9.80;5.90;;;;;;;34.45;17.25;99692.91;5043396;28;20099;-60
2021/08/25 07:49:03;;;;;;;8.57;6.05;;;;;;;34.85;16.48;99688.41;5030867;28;20099;-56
2021/08/25 07:51:29;;;;;;;11.68;6.57;;;;;;;35.22;16.70;99682.34;5058929;28;20131;-54
2021/08/25 07:53:55;;;;;;;8.88;6.32;;;;;;;35.26;16.94;99678.16;5065394;28;20522;-53
2021/08/25 07:56:21;;;;;;;8.90;6.07;;;;;;;34.90;16.99;99660.75;5043972;28;20124;-58
2021/08/25 07:58:48;;;;;;;9.27;5.87;;;;;;;34.92;16.93;99675.69;5038146;28;20037;-56
2021/08/25 08:01:13;;;;;;;10.68;6.40;;;;;;;35.32;16.50;99675.66;5050033;28;20044;-52
2021/08/25 08:03:39;;;;;;;9.80;6.28;;;;;;;35.00;16.68;99685.47;5049081;28;20041;-50
2021/08/25 08:06:05;;;;;;;8.32;5.95;;;;;;;34.17;17.25;99676.88;5048467;28;20044;-52
2021/08/25 08:08:32;;;;;;;11.27;6.07;;;;;;;34.68;17.51;99677.19;5028962;28;20061;-53
2021/08/25 08:10:58;;;;;;;12.43;7.07;;;;;;;35.33;17.03;99664.59;5049170;28;20107;-52
2021/08/25 08:13:24;;;;;;;11.38;6.30;;;;;;;36.03;16.89;99671.81;5034405;28;20037;-53
2021/08/25 08:15:50;;;;;;;12.07;9.35;;;;;;;36.66;15.61;99663.69;5034535;28;20132;-51
2021/08/25 08:18:20;;;;;;;7.78;5.95;;;;;;;37.16;16.09;99669.91;5033865;28;20136;-54
2021/08/25 08:20:48;;;;;;;9.85;5.60;;;;;;;37.33;15.89;99672.84;5034332;28;20076;-51
2021/08/25 08:23:14;;;;;;;12.65;6.15;;;;;;;37.43;15.22;99669.59;5045873;28;20479;-55
2021/08/25 08:25:40;;;;;;;12.95;7.05;;;;;;;37.63;15.13;99667.53;5042084;28;20037;-49
2021/08/25 08:28:06;;;;;;;14.30;7.90;;;;;;;37.94;15.40;99664.59;5034940;28;20049;-47
2021/08/25 08:30:32;;;;;;;9.77;7.22;;;;;;;38.16;15.08;99654.88;5056554;28;20036;-47
2021/08/25 08:32:59;;;;;;;9.65;7.03;;;;;;;38.11;15.25;99645.75;5049336;28;20040;-52
2021/08/25 08:35:25;;;;;;;12.48;7.05;;;;;;;38.26;15.02;99642.63;5015789;28;20077;-48
2021/08/25 08:37:50;;;;;;;15.27;6.68;;;;;;;38.71;14.47;99641.03;5032374;28;20064;-54
2021/08/25 08:40:16;;;;;;;10.07;6.95;;;;;;;39.35;14.34;99634.66;5049867;28;20037;-50
2021/08/25 08:42:42;;;;;;;10.18;7.05;;;;;;;39.37;13.98;99632.50;5056477;28;20421;-49
2021/08/25 08:45:10;;;;;;;12.65;6.57;;;;;;;39.44;14.17;99631.53;5046946;28;20072;-51
2021/08/25 08:47:36;;;;;;;15.85;7.68;;;;;;;39.97;13.95;99640.22;5043447;28;20161;-49
2021/08/25 08:50:04;;;;;;;10.82;6.05;;;;;;;40.43;13.33;99639.13;5069519;28;20151;-51
2021/08/25 08:52:29;;;;;;;15.87;7.70;;;;;;;40.36;14.00;99619.38;5055251;28;20095;-48
2021/08/25 08:54:57;;;;;;;17.70;7.32;;;;;;;40.35;13.55;99627.81;5063050;28;20048;-47
2021/08/25 08:57:24;;;;;;;10.30;7.78;;;;;;;40.67;13.83;99631.63;5054716;28;20571;-52
2021/08/25 08:59:50;;;;;;;12.60;7.82;;;;;;;41.07;13.31;99636.03;5057891;28;20079;-50
2021/08/25 09:02:39;;;;;;;10.80;7.88;;;;;;;41.64;12.91;99617.38;5056385;28;20068;-49
2021/08/25 09:05:16;;;;;;;17.85;7.60;;;;;;;41.74;13.24;99631.97;5030059;28;20488;-49
2021/08/25 09:08:04;;;;;;;12.38;9.82;;;;;;;41.42;12.32;99620.94;5031170;28;20080;-50
2021/08/25 09:10:37;;;;;;;13.70;9.10;;;;;;;41.60;12.48;99629.91;5048828;28;20087;-45
2021/08/25 09:13:09;;;;;;;14.52;11.30;;;;;;;41.04;13.21;99626.44;5049201;28;20132;-50
2021/08/25 09:15:40;;;;;;;13.90;7.82;;;;;;;39.22;13.90;99607.66;5049715;28;20076;-50
2021/08/25 09:18:09;;;;;;;11.85;7.25;;;;;;;37.86;14.68;99617.91;5048298;28;20045;-46
2021/08/25 09:20:54;;;;;;;13.07;7.55;;;;;;;37.66;14.83;99615.50;5050100;28;20068;-49
2021/08/25 09:23:25;;;;;;;14.38;8.25;;;;;;;38.16;14.26;99610.59;5049098;28;20071;-45
2021/08/25 09:26:03;;;;;;;10.27;7.53;;;;;;;38.54;14.42;99605.59;5048436;28;20127;-50
2021/08/25 09:28:32;;;;;;;10.52;7.55;;;;;;;38.73;14.50;99600.88;5047160;28;20036;-50
2021/08/25 09:31:06;;;;;;;10.63;7.40;;;;;;;37.34;15.05;99603.97;5043413;28;20048;-45
2021/08/25 09:33:35;;;;;;;10.48;7.20;;;;;;;35.30;16.53;99586.63;5028355;28;20086;-46
2021/08/25 09:36:04;;;;;;;11.45;7.03;;;;;;;33.78;18.04;99593.13;5047361;28;20135;-44
2021/08/25 09:38:31;;;;;;;11.45;7.50;;;;;;;33.30;18.84;99592.31;5046383;28;20048;-52
2021/08/25 09:41:04;;;;;;;13.45;7.68;;;;;;;35.26;17.59;99591.66;5044280;28;20140;-48
2021/08/25 09:43:33;;;;;;;16.10;9.30;;;;;;;37.07;16.30;99594.47;5044462;28;20124;-50
2021/08/25 09:46:13;;;;;;;15.48;8.13;;;;;;;37.29;15.60;99587.56;5045952;28;20065;-47
2021/08/25 09:48:44;;;;;;;18.15;8.85;;;;;;;37.33;15.61;99583.34;5046717;28;20178;-48
2021/08/25 09:51:12;;;;;;;11.00;7.30;;;;;;;37.86;15.34;99590.78;5026379;28;20037;-49
2021/08/25 09:53:38;;;;;;;11.85;7.90;;;;;;;38.25;14.75;99586.66;5036133;28;20124;-44
2021/08/25 09:56:32;;;;;;;24.23;8.35;;;;;;;38.68;14.67;99576.25;5043752;28;20140;-48
2021/08/25 09:58:58;;;;;;;10.45;6.75;;;;;;;38.76;14.33;99572.38;5045418;28;20049;-48
2021/08/25 10:01:25;;;;;;;13.15;6.72;;;;;;;38.26;14.13;99572.84;5047328;28;20507;-50
2021/08/25 10:03:51;;;;;;;8.30;6.50;;;;;;;38.42;14.12;99574.81;5048336;28;20040;-48
2021/08/25 10:06:19;;;;;;;11.23;7.38;;;;;;;37.78;14.18;99575.66;5043046;28;20071;-50
2021/08/25 10:08:46;;;;;;;15.32;7.60;;;;;;;38.05;14.29;99570.69;5046979;28;20036;-46
2021/08/25 10:11:12;;;;;;;11.93;7.00;;;;;;;37.49;14.48;99566.41;5045534;28;20141;-51
2021/08/25 10:13:39;;;;;;;12.68;7.88;;;;;;;37.84;14.64;99560.34;5043044;28;20060;-50
2021/08/25 10:16:05;;;;;;;14.27;7.23;;;;;;;37.83;14.23;99545.94;5046237;28;20523;-46
2021/08/25 10:18:42;;;;;;;10.80;6.90;;;;;;;38.29;14.48;99564.19;5032967;28;20319;-48
2021/08/25 10:21:41;;;;;;;13.75;7.38;;;;;;;38.49;14.47;99558.44;5046903;28;20041;-52
2021/08/25 10:24:07;;;;;;;13.73;7.40;;;;;;;38.63;14.09;99559.03;5036623;28;20072;-51
2021/08/25 10:26:58;;;;;;;14.43;8.35;;;;;;;38.67;14.23;99557.50;5043757;28;20047;-47
2021/08/25 10:29:27;;;;;;;12.00;7.35;;;;;;;38.54;13.95;99539.53;5046984;28;20040;-49
2021/08/25 10:31:53;;;;;;;17.42;7.65;;;;;;;37.87;14.40;99547.13;5038490;28;20041;-46
2021/08/25 10:34:26;;;;;;;9.05;6.55;;;;;;;37.64;14.30;99538.91;5037929;28;20052;-53
2021/08/25 10:37:12;;;;;;;104.68;17.88;;;;;;;36.80;15.21;99540.56;5040340;28;20044;-51
2021/08/25 10:39:40;;;;;;;12.80;6.95;;;;;;;35.49;15.53;99533.47;5027878;28;20524;-54
2021/08/25 10:42:07;;;;;;;11.57;6.72;;;;;;;35.31;15.86;99519.88;5040500;28;20103;-56
2021/08/25 10:44:39;;;;;;;9.50;6.47;;;;;;;36.29;15.55;99524.59;5043558;28;20036;-52
2021/08/25 10:47:07;;;;;;;15.20;7.10;;;;;;;36.69;15.95;99516.13;5044154;28;20041;-52
2021/08/25 10:49:34;;;;;;;15.82;6.90;;;;;;;37.53;15.35;99524.19;5046982;28;20040;-51
2021/08/25 10:52:28;;;;;;;12.53;7.20;;;;;;;37.89;14.97;99536.03;5026607;28;20036;-53
2021/08/25 10:54:55;;;;;;;14.75;6.22;;;;;;;38.00;14.44;99536.06;5044736;28;20041;-58
2021/08/25 10:57:23;;;;;;;11.75;7.20;;;;;;;37.94;14.86;99544.28;5039190;28;20045;-56
2021/08/25 10:59:49;;;;;;;13.00;6.72;;;;;;;38.16;14.56;99540.78;5037234;28;20041;-53
2021/08/25 11:02:15;;;;;;;31.48;8.98;;;;;;;38.82;14.63;99539.63;5050014;28;20133;-59
2021/08/25 11:04:41;;;;;;;33.42;10.43;;;;;;;39.37;14.68;99539.16;5051093;28;20052;-59
2021/08/25 11:07:13;;;;;;;12.10;7.00;;;;;;;39.78;14.02;99533.41;5031824;28;20045;-51
2021/08/25 11:09:45;;;;;;;14.02;7.82;;;;;;;39.85;13.67;99532.41;5031223;28;20037;-50
2021/08/25 11:12:21;;;;;;;11.60;7.00;;;;;;;39.65;13.66;99528.25;5047500;28;20068;-52
2021/08/25 11:14:54;;;;;;;10.88;6.95;;;;;;;39.27;12.99;99533.47;5049208;28;20187;-47
2021/08/25 11:17:28;;;;;;;9.68;6.85;;;;;;;38.12;13.72;99528.75;5049126;28;20041;-51
2021/08/25 11:19:57;;;;;;;12.23;7.60;;;;;;;37.32;14.49;99533.69;5050204;28;20155;-48
2021/08/25 11:22:37;;;;;;;16.65;10.85;;;;;;;38.12;14.44;99523.31;5041849;28;20052;-52
2021/08/25 11:25:05;;;;;;;8.80;6.97;;;;;;;38.82;14.10;99517.03;5048786;28;20080;-55
2021/08/25 11:27:36;;;;;;;10.23;6.90;;;;;;;39.27;13.71;99520.72;5042421;28;20127;-54
2021/08/25 11:30:02;;;;;;;16.90;7.78;;;;;;;39.19;14.02;99520.28;5051347;28;20044;-51